Main page
METAR-TAF:

METAR-TAF

Airports :

Cairo International Airport

Cairo, Egypt

latitude: 30-08N, longitude: 031-24E, elevation: 64 m

Current weather observation

The report was made 21 minutes ago, at 03:30 UTC
Wind 3 kt from the West
Temperature 10°C
Humidity 66%
Pressure 1023 hPa
Visibility: 6000 m
Scattered clouds at a height of 2500 ft

METAR: HECA 220330Z 28003KT 6000 SCT025 10/04 Q1023 NOSIG

Time: 05:51 (03:51 UTC)

Forecast

The report was made 4 hours and 51 minutes ago, at 23:00 UTC
Forecast valid from 22 at 00 UTC to 23 at 06 UTC
Wind 9 kt from the North/Northwest
Visibility 10 km or more
Scattered clouds at a height of 2500 ft
Scattered clouds at a height of 7000 ft
Temporary
from 22 at 00 UTC to 22 at 06 UTC
Wind 3 kt from variable directions
Visibility: 4000 m
mist

TAF: HECA 212300Z 2200/2306 33009KT 9999 SCT025 SCT070 TEMPO 2200/2206 VRB03KT 4000 BR NSC

Weather observations and forecasts of more than 4000 airports (METAR and TAF reports).

The available stations are represented by yellow and red dots on the map.

Hover mouse over dot to see the name of the station.

Then click to see weather observations and forecasts.

To change the map : click on the green buttons with a black cross to zoom in, on the green button with a dash to zoom out, or on the green arrows for adjacent maps.


METAR-TAF: